createdAt,value
2019-03-25T00:00:39.607Z,86.00
2019-03-25T00:03:10.772Z,86.08
2019-03-25T00:05:41.799Z,86.14
2019-03-25T00:08:11.346Z,86.20
2019-03-25T00:10:40.918Z,86.36
2019-03-25T00:13:10.703Z,86.58
2019-03-25T00:15:40.331Z,86.85
2019-03-25T00:18:09.910Z,86.85
2019-03-25T00:20:39.405Z,86.79
2019-03-25T00:23:08.953Z,86.86
2019-03-25T00:25:38.442Z,86.78
2019-03-25T00:28:07.843Z,87.15
2019-03-25T00:30:37.357Z,86.51
2019-03-25T00:33:06.856Z,85.85
2019-03-25T00:35:36.282Z,85.47
2019-03-25T00:38:05.776Z,85.84
2019-03-25T00:40:35.195Z,85.58
2019-03-25T00:43:04.606Z,85.20
2019-03-25T00:45:34.063Z,84.77
2019-03-25T00:48:03.475Z,84.83
2019-03-25T00:50:32.935Z,84.58
2019-03-25T00:53:02.350Z,84.14
2019-03-25T00:55:31.864Z,83.68
2019-03-25T00:58:01.342Z,83.79
2019-03-25T01:00:30.800Z,84.62
2019-03-25T01:03:00.250Z,85.06
2019-03-25T01:05:29.741Z,86.33
2019-03-25T01:07:59.152Z,86.70
2019-03-25T01:10:28.612Z,86.37
2019-03-25T01:12:58.090Z,86.93
2019-03-25T01:15:27.515Z,87.51
2019-03-25T01:17:56.934Z,88.23
2019-03-25T01:20:26.448Z,88.63
2019-03-25T01:22:55.888Z,88.66
2019-03-25T01:25:25.356Z,88.01
2019-03-25T01:27:54.770Z,88.22
2019-03-25T01:30:24.195Z,88.88
2019-03-25T01:32:53.617Z,89.74
2019-03-25T01:35:23.107Z,90.35
2019-03-25T01:37:52.563Z,90.18
2019-03-25T01:40:22.024Z,89.98
2019-03-25T01:42:51.487Z,90.73
2019-03-25T01:45:21.018Z,91.53
2019-03-25T01:47:50.432Z,92.13
2019-03-25T01:50:19.855Z,92.08
2019-03-25T01:52:51.285Z,92.08
2019-03-25T01:55:20.842Z,92.61
2019-03-25T01:57:50.311Z,93.09
2019-03-25T02:00:19.808Z,93.37
2019-03-25T02:02:49.217Z,93.55
2019-03-25T02:05:19.739Z,93.77
2019-03-25T02:07:49.148Z,94.17
2019-03-25T02:10:18.931Z,94.49
2019-03-25T02:12:48.343Z,94.95
2019-03-25T02:15:17.841Z,95.42
2019-03-25T02:17:47.267Z,95.81
2019-03-25T02:20:25.727Z,96.26
2019-03-25T02:22:49.036Z,96.11
2019-03-25T02:25:25.317Z,96.11
2019-03-25T02:27:49.609Z,96.18
2019-03-25T02:30:19.239Z,95.74
2019-03-25T02:32:48.861Z,95.46
2019-03-25T02:35:18.335Z,95.54
2019-03-25T02:37:47.803Z,95.72
2019-03-25T02:40:17.237Z,95.83
2019-03-25T02:42:47.616Z,95.88
2019-03-25T02:45:18.027Z,95.66
2019-03-25T02:47:47.472Z,95.20
2019-03-25T02:50:17.364Z,94.86
2019-03-25T02:52:46.843Z,95.06
2019-03-25T02:55:16.256Z,95.50
2019-03-25T02:57:45.712Z,96.00
2019-03-25T03:00:18.193Z,96.45
2019-03-25T03:02:47.690Z,96.71
2019-03-25T03:05:17.117Z,96.67
2019-03-25T03:07:46.576Z,96.68
2019-03-25T03:10:16.075Z,96.55
2019-03-25T03:12:45.512Z,96.49
2019-03-25T03:15:14.919Z,96.65
2019-03-25T03:17:45.326Z,96.81
2019-03-25T03:20:14.724Z,97.16
2019-03-25T03:22:44.220Z,96.93
2019-03-25T03:25:13.845Z,96.76
2019-03-25T03:27:43.269Z,96.83
2019-03-25T03:30:13.269Z,96.50
2019-03-25T03:32:42.644Z,96.47
2019-03-25T03:35:12.218Z,96.32
2019-03-25T03:37:41.634Z,96.30
2019-03-25T03:40:12.004Z,96.54
2019-03-25T03:42:42.684Z,96.62
2019-03-25T03:45:13.499Z,96.60
2019-03-25T03:47:42.954Z,96.23
2019-03-25T03:50:15.428Z,95.78
2019-03-25T03:52:45.565Z,95.76
2019-03-25T03:55:15.058Z,95.76
2019-03-25T03:57:45.465Z,95.38
2019-03-25T04:00:17.941Z,96.22
2019-03-25T04:02:47.368Z,96.59
2019-03-25T04:05:16.967Z,96.59
2019-03-25T04:07:46.400Z,97.81
2019-03-25T04:10:15.895Z,97.81
2019-03-25T04:12:45.321Z,98.22
2019-03-25T04:15:17.843Z,98.47
2019-03-25T04:17:47.355Z,98.88
2019-03-25T04:20:16.767Z,98.80
2019-03-25T04:22:46.228Z,98.94
2019-03-25T04:25:15.642Z,99.25
2019-03-25T04:27:45.069Z,99.25
2019-03-25T04:30:14.822Z,99.33
2019-03-25T04:32:44.244Z,99.28
2019-03-25T04:35:13.743Z,99.24
2019-03-25T04:37:43.152Z,99.24
2019-03-25T04:40:13.945Z,99.27
2019-03-25T04:42:43.431Z,99.27
2019-03-25T04:45:13.098Z,99.70
2019-03-25T04:47:42.532Z,99.70
2019-03-25T04:50:12.176Z,99.75
2019-03-25T04:52:41.605Z,99.83
2019-03-25T04:55:11.254Z,99.98
2019-03-25T04:57:40.764Z,100.00
2019-03-25T05:00:10.537Z,100.00
2019-03-25T05:02:39.980Z,100.00
2019-03-25T05:05:09.799Z,100.00
2019-03-25T05:07:39.367Z,100.00
2019-03-25T05:10:09.145Z,100.00
2019-03-25T05:12:38.603Z,100.00
2019-03-25T05:15:08.204Z,100.00
2019-03-25T05:17:37.629Z,100.00
2019-03-25T05:20:07.322Z,100.00
2019-03-25T05:22:36.800Z,100.00
2019-03-25T05:25:07.856Z,100.00
2019-03-25T05:27:37.354Z,100.00
2019-03-25T05:30:07.512Z,100.00
2019-03-25T05:32:36.944Z,99.96
2019-03-25T05:35:07.535Z,99.81
2019-03-25T05:37:37.055Z,99.81
2019-03-25T05:40:07.117Z,99.17
2019-03-25T05:42:36.582Z,99.17
2019-03-25T05:45:07.412Z,98.32
2019-03-25T05:47:36.834Z,98.07
2019-03-25T05:50:09.234Z,98.07
2019-03-25T05:52:39.892Z,97.69
2019-03-25T05:55:09.492Z,96.66
2019-03-25T05:57:38.907Z,96.66
2019-03-25T06:00:08.798Z,95.83
2019-03-25T06:02:38.271Z,95.83
2019-03-25T06:05:07.905Z,95.80
2019-03-25T06:07:37.303Z,95.80
2019-03-25T06:10:07.435Z,95.48
2019-03-25T06:12:36.957Z,94.93
2019-03-25T06:15:08.215Z,94.93
2019-03-25T06:17:37.700Z,94.05
2019-03-25T06:20:07.797Z,93.26
2019-03-25T06:22:37.194Z,93.26
2019-03-25T06:25:07.895Z,93.22
2019-03-25T06:27:37.519Z,93.02
2019-03-25T06:30:09.180Z,92.97
2019-03-25T06:32:38.590Z,91.99
2019-03-25T06:35:09.518Z,91.78
2019-03-25T06:37:38.918Z,90.87
2019-03-25T06:40:09.283Z,90.37
2019-03-25T06:42:38.690Z,89.21
2019-03-25T06:45:08.849Z,89.21
2019-03-25T06:47:38.317Z,88.63
2019-03-25T06:50:09.149Z,88.25
2019-03-25T06:52:38.566Z,87.34
2019-03-25T06:55:09.273Z,87.39
2019-03-25T06:57:39.062Z,87.42
2019-03-25T07:00:11.954Z,86.79
2019-03-25T07:02:41.850Z,86.25
2019-03-25T07:05:13.090Z,85.43
2019-03-25T07:07:42.555Z,85.00
2019-03-25T07:10:12.514Z,84.44
2019-03-25T07:12:43.982Z,84.54
2019-03-25T07:15:13.664Z,84.38
2019-03-25T07:17:43.216Z,82.66
2019-03-25T07:20:12.912Z,82.41
2019-03-25T07:22:42.321Z,82.74
2019-03-25T07:25:13.285Z,82.85
2019-03-25T07:27:42.705Z,82.54
2019-03-25T07:30:12.465Z,82.25
2019-03-25T07:32:41.870Z,82.12
2019-03-25T07:35:12.250Z,81.66
2019-03-25T07:37:41.655Z,81.06
2019-03-25T07:40:11.560Z,79.67
2019-03-25T07:42:42.900Z,79.25
2019-03-25T07:45:12.954Z,78.23
2019-03-25T07:47:42.365Z,78.70
2019-03-25T07:50:12.012Z,77.08
2019-03-25T07:52:41.423Z,76.14
2019-03-25T07:55:11.610Z,76.24
2019-03-25T07:57:48.050Z,74.86
2019-03-25T08:00:14.377Z,75.11
2019-03-25T08:02:43.806Z,73.73
2019-03-25T08:05:14.499Z,72.72
2019-03-25T08:07:43.985Z,72.64
2019-03-25T08:10:13.915Z,72.84
2019-03-25T08:12:43.452Z,71.92
2019-03-25T08:15:13.155Z,71.78
2019-03-25T08:17:42.682Z,71.39
2019-03-25T08:20:12.393Z,70.75
2019-03-25T08:22:41.808Z,70.72
2019-03-25T08:25:11.768Z,71.44
2019-03-25T08:27:41.269Z,69.43
2019-03-25T08:30:11.237Z,69.15
2019-03-25T08:32:40.640Z,68.22
2019-03-25T08:35:10.511Z,67.06
2019-03-25T08:37:39.981Z,65.93
2019-03-25T08:40:10.993Z,64.88
2019-03-25T08:42:40.400Z,65.21
2019-03-25T08:45:11.682Z,65.42
2019-03-25T08:47:41.232Z,63.45
2019-03-25T08:50:11.680Z,62.60
2019-03-25T08:52:41.167Z,61.85
2019-03-25T08:55:10.796Z,59.58
2019-03-25T08:57:40.236Z,59.29
2019-03-25T09:00:13.071Z,59.45
2019-03-25T09:02:42.615Z,59.27
2019-03-25T09:05:12.445Z,60.11
2019-03-25T09:07:41.886Z,57.97
2019-03-25T09:10:12.202Z,59.25
2019-03-25T09:12:41.690Z,61.13
2019-03-25T09:15:11.834Z,63.21
2019-03-25T09:17:41.338Z,64.04
2019-03-25T09:20:11.493Z,63.40
2019-03-25T09:22:41.010Z,64.11
2019-03-25T09:25:10.767Z,63.26
2019-03-25T09:27:40.184Z,63.83
2019-03-25T09:30:10.597Z,64.37
2019-03-25T09:32:40.091Z,61.83
2019-03-25T09:35:10.925Z,60.58
2019-03-25T09:37:40.523Z,62.24
2019-03-25T09:40:10.975Z,62.02
2019-03-25T09:42:40.426Z,62.15
2019-03-25T09:45:10.587Z,62.52
2019-03-25T09:47:40.108Z,61.92
2019-03-25T09:50:10.931Z,62.59
2019-03-25T09:52:40.534Z,60.83
2019-03-25T09:55:10.355Z,61.22
2019-03-25T09:57:39.770Z,61.36
2019-03-25T10:00:12.570Z,61.10
2019-03-25T10:02:42.064Z,62.31
2019-03-25T10:05:11.700Z,61.16
2019-03-25T10:07:42.332Z,61.66
2019-03-25T10:10:12.063Z,59.29
2019-03-25T10:12:41.586Z,61.49
2019-03-25T10:15:11.339Z,60.25
2019-03-25T10:17:40.755Z,59.91
2019-03-25T10:20:10.510Z,58.78
2019-03-25T10:22:40.042Z,56.17
2019-03-25T10:25:10.778Z,56.28
2019-03-25T10:27:40.314Z,55.75
2019-03-25T10:30:12.057Z,56.19
2019-03-25T10:32:41.548Z,56.35
2019-03-25T10:35:11.493Z,56.59
2019-03-25T10:37:41.012Z,55.08
2019-03-25T10:40:10.825Z,53.67
2019-03-25T10:42:40.245Z,53.68
2019-03-25T10:45:10.771Z,52.06
2019-03-25T10:47:40.199Z,52.65
2019-03-25T10:50:09.855Z,54.46
2019-03-25T10:52:39.410Z,53.57
2019-03-25T10:55:09.942Z,54.30
2019-03-25T10:57:40.840Z,55.15
2019-03-25T11:00:11.945Z,52.71
2019-03-25T11:02:41.498Z,54.95
2019-03-25T11:05:12.421Z,54.47
2019-03-25T11:10:14.152Z,55.63
2019-03-25T11:12:44.684Z,53.96
2019-03-25T11:15:14.262Z,52.73
2019-03-25T11:17:43.683Z,53.58
2019-03-25T11:20:13.626Z,54.12
2019-03-25T11:22:43.140Z,54.12
2019-03-25T11:25:14.638Z,54.37
2019-03-25T11:27:53.957Z,55.67
2019-03-25T11:30:18.232Z,56.12
2019-03-25T11:32:47.678Z,56.61
2019-03-25T11:35:17.318Z,58.38
2019-03-25T11:37:46.725Z,58.67
2019-03-25T11:40:16.342Z,61.46
2019-03-25T11:42:45.751Z,63.49
2019-03-25T11:45:15.406Z,64.28
2019-03-25T11:47:44.837Z,64.98
2019-03-25T11:50:15.421Z,64.63
2019-03-25T11:52:46.439Z,63.32
2019-03-25T11:55:17.751Z,67.37
2019-03-25T11:57:47.335Z,70.80
2019-03-25T12:00:16.991Z,74.11
2019-03-25T12:02:46.401Z,74.58
2019-03-25T12:05:16.192Z,80.23
2019-03-25T12:07:45.591Z,82.46
2019-03-25T12:10:15.395Z,83.23
2019-03-25T12:12:44.799Z,83.97
2019-03-25T12:15:14.486Z,81.73
2019-03-25T12:17:43.969Z,82.06
2019-03-25T12:20:13.865Z,83.22
2019-03-25T12:22:43.270Z,80.62
2019-03-25T12:25:12.851Z,80.95
2019-03-25T12:27:42.256Z,80.84
2019-03-25T12:30:11.857Z,79.99
2019-03-25T12:32:41.316Z,80.22
2019-03-25T12:35:11.181Z,79.97
2019-03-25T12:37:40.583Z,79.18
2019-03-25T12:40:10.474Z,80.19
2019-03-25T12:42:39.950Z,80.13
2019-03-25T12:45:11.041Z,79.19
2019-03-25T12:47:40.451Z,80.99
2019-03-25T12:50:11.495Z,84.75
2019-03-25T12:52:42.085Z,87.92
2019-03-25T12:55:13.180Z,91.97
2019-03-25T12:57:42.751Z,94.03
2019-03-25T13:00:12.681Z,95.85
2019-03-25T13:02:42.085Z,94.19
2019-03-25T13:05:11.836Z,92.51
2019-03-25T13:07:41.237Z,90.11
2019-03-25T13:10:10.923Z,87.43
2019-03-25T13:12:40.426Z,86.89
2019-03-25T13:15:10.129Z,82.22
2019-03-25T13:17:39.543Z,82.19
2019-03-25T13:20:09.490Z,79.86
2019-03-25T13:22:38.890Z,81.91
2019-03-25T13:25:08.760Z,80.33
2019-03-25T13:27:38.170Z,79.95
2019-03-25T13:30:08.421Z,81.26
2019-03-25T13:32:37.938Z,82.16
2019-03-25T13:35:08.150Z,82.57
2019-03-25T13:37:37.581Z,82.46
2019-03-25T13:40:08.147Z,81.96
2019-03-25T13:42:37.546Z,80.04
2019-03-25T13:45:13.869Z,81.41
2019-03-25T13:47:43.547Z,80.10
2019-03-25T13:50:13.199Z,80.21
2019-03-25T13:52:42.668Z,80.03
2019-03-25T13:55:12.231Z,80.26
2019-03-25T13:57:41.690Z,79.52
2019-03-25T14:00:11.550Z,80.90
2019-03-25T14:02:41.933Z,80.67
2019-03-25T14:05:11.557Z,80.35
2019-03-25T14:07:41.015Z,79.63
2019-03-25T14:10:12.198Z,80.44
2019-03-25T14:12:42.348Z,81.60
2019-03-25T14:15:12.262Z,80.94
2019-03-25T14:17:41.667Z,80.90
2019-03-25T14:20:13.214Z,80.99
2019-03-25T14:22:42.632Z,80.57
2019-03-25T14:25:12.089Z,79.82
2019-03-25T14:27:41.491Z,79.58
2019-03-25T14:30:14.739Z,80.32
2019-03-25T14:32:42.722Z,81.20
2019-03-25T14:35:12.330Z,79.64
2019-03-25T14:37:41.778Z,78.11
2019-03-25T14:40:11.199Z,78.15
2019-03-25T14:42:40.645Z,78.47
2019-03-25T14:45:10.588Z,78.44
2019-03-25T14:47:40.102Z,79.10
2019-03-25T14:50:10.371Z,78.08
2019-03-25T14:52:40.909Z,77.64
2019-03-25T14:55:10.580Z,78.49
2019-03-25T14:57:40.031Z,78.92
2019-03-25T15:00:10.147Z,78.68
2019-03-25T15:02:39.577Z,78.94
2019-03-25T15:05:10.136Z,77.87
2019-03-25T15:07:39.639Z,78.05
2019-03-25T15:10:09.481Z,78.69
2019-03-25T15:12:39.002Z,79.17
2019-03-25T15:15:09.309Z,79.91
2019-03-25T15:17:38.757Z,80.94
2019-03-25T15:20:10.175Z,80.79
2019-03-25T15:22:39.941Z,80.03
2019-03-25T15:25:09.793Z,79.51
2019-03-25T15:27:40.365Z,78.40
2019-03-25T15:30:10.511Z,76.95
2019-03-25T15:32:40.000Z,76.15
2019-03-25T15:35:10.004Z,74.90
2019-03-25T15:37:39.453Z,74.55
2019-03-25T15:40:10.333Z,74.12
2019-03-25T15:42:39.865Z,74.75
2019-03-25T15:45:09.704Z,74.66
2019-03-25T15:47:40.365Z,75.19
2019-03-25T15:50:11.723Z,75.72
2019-03-25T15:52:41.350Z,75.92
2019-03-25T15:55:12.292Z,76.47
2019-03-25T15:57:41.776Z,76.79
2019-03-25T16:00:17.733Z,77.01
2019-03-25T16:02:47.292Z,76.96
2019-03-25T16:05:17.117Z,77.08
2019-03-25T16:07:46.582Z,77.32
2019-03-25T16:10:17.209Z,77.96
2019-03-25T16:12:47.120Z,78.20
2019-03-25T16:15:31.681Z,78.66
2019-03-25T16:18:01.167Z,78.82
2019-03-25T16:20:30.596Z,79.67
2019-03-25T16:23:00.059Z,79.24
2019-03-25T16:25:29.487Z,78.99
2019-03-25T16:27:59.048Z,78.24
2019-03-25T16:30:29.467Z,77.62
2019-03-25T16:32:58.901Z,77.26
2019-03-25T16:35:28.346Z,77.23
2019-03-25T16:38:00.598Z,77.49
2019-03-25T16:40:30.033Z,77.95
2019-03-25T16:43:00.066Z,78.00
2019-03-25T16:45:30.403Z,78.94
2019-03-25T16:47:59.835Z,78.61
2019-03-25T16:50:29.241Z,79.07
2019-03-25T16:52:58.955Z,78.76
2019-03-25T16:55:28.504Z,78.08
2019-03-25T16:57:57.969Z,78.51
2019-03-25T17:00:27.911Z,79.25
2019-03-25T17:02:57.481Z,79.12
2019-03-25T17:05:26.943Z,77.50
2019-03-25T17:07:56.645Z,77.50
2019-03-25T17:10:26.071Z,77.55
2019-03-25T17:12:58.629Z,77.77
2019-03-25T17:15:28.132Z,77.81
2019-03-25T17:17:57.545Z,77.60
2019-03-25T17:20:26.959Z,78.32
2019-03-25T17:22:56.374Z,78.16
2019-03-25T17:25:25.788Z,78.68
2019-03-25T17:27:55.248Z,79.23
2019-03-25T17:30:24.843Z,79.98
2019-03-25T17:32:54.262Z,79.98
2019-03-25T17:35:23.717Z,80.37
2019-03-25T17:37:53.139Z,80.51
2019-03-25T17:40:22.738Z,81.20
2019-03-25T17:42:52.196Z,82.24
2019-03-25T17:45:22.764Z,83.11
2019-03-25T17:47:52.163Z,85.71
2019-03-25T17:50:21.659Z,85.71
2019-03-25T17:52:51.148Z,86.67
2019-03-25T17:55:21.662Z,87.55
2019-03-25T17:57:51.065Z,88.31
2019-03-25T18:00:41.401Z,89.30
2019-03-25T18:03:15.259Z,89.30
2019-03-25T18:05:44.446Z,90.02
2019-03-25T18:08:13.999Z,90.64
2019-03-25T18:10:44.539Z,91.11
2019-03-25T18:13:22.022Z,91.53
2019-03-25T18:15:45.080Z,92.08
2019-03-25T18:18:14.477Z,92.54
2019-03-25T18:20:43.930Z,92.95
2019-03-25T18:23:13.462Z,93.24
2019-03-25T18:25:42.914Z,93.09
2019-03-25T18:28:12.315Z,93.09
2019-03-25T18:30:41.735Z,92.99
2019-03-25T18:33:11.133Z,92.93
2019-03-25T18:35:40.560Z,92.82
2019-03-25T18:38:10.385Z,92.98
2019-03-25T18:40:39.825Z,92.98
2019-03-25T18:43:09.371Z,92.98
2019-03-25T18:45:38.918Z,92.98
2019-03-25T18:48:08.414Z,93.22
2019-03-25T18:50:37.835Z,93.31
2019-03-25T18:53:07.301Z,93.55
2019-03-25T18:55:36.794Z,93.55
2019-03-25T18:58:06.939Z,93.62
2019-03-25T19:00:37.363Z,93.62
2019-03-25T19:03:06.861Z,100.00
2019-03-25T19:05:36.895Z,94.14
2019-03-25T19:08:06.638Z,94.14
2019-03-25T19:10:36.143Z,94.16
2019-03-25T19:13:05.563Z,94.05
2019-03-25T19:15:35.019Z,94.14
2019-03-25T19:18:04.491Z,94.14
2019-03-25T19:20:33.919Z,94.13
2019-03-25T19:23:03.388Z,94.45
2019-03-25T19:25:32.887Z,94.62
2019-03-25T19:28:03.835Z,94.62
2019-03-25T19:30:33.316Z,94.38
2019-03-25T19:33:02.790Z,94.14
2019-03-25T19:35:32.258Z,93.85
2019-03-25T19:38:01.708Z,93.85
2019-03-25T19:40:31.132Z,93.83
2019-03-25T19:43:00.578Z,93.75
2019-03-25T19:45:30.194Z,93.75
2019-03-25T19:47:59.713Z,93.53
2019-03-25T19:50:29.218Z,93.32
2019-03-25T19:52:58.697Z,92.73
2019-03-25T19:55:28.174Z,92.73
2019-03-25T19:57:57.606Z,93.08
2019-03-25T20:00:35.927Z,93.08
2019-03-25T20:03:06.184Z,93.35
2019-03-25T20:05:35.818Z,93.68
2019-03-25T20:08:05.468Z,94.07
2019-03-25T20:10:36.718Z,94.07
2019-03-25T20:13:06.474Z,94.28
2019-03-25T20:15:45.899Z,94.27
2019-03-25T20:18:09.746Z,94.42
2019-03-25T20:20:39.211Z,94.51
2019-03-25T20:23:08.712Z,94.30
2019-03-25T20:25:38.124Z,94.53
2019-03-25T20:28:07.675Z,94.71
2019-03-25T20:30:37.232Z,94.88
2019-03-25T20:33:06.815Z,95.15
2019-03-25T20:35:36.346Z,95.45
2019-03-25T20:38:05.841Z,95.82
2019-03-25T20:40:35.402Z,96.16
2019-03-25T20:43:04.792Z,96.57
2019-03-25T20:45:34.282Z,96.83
2019-03-25T20:48:03.977Z,97.02
2019-03-25T20:50:33.541Z,97.36
2019-03-25T20:53:05.567Z,97.61
2019-03-25T20:55:34.995Z,97.59
2019-03-25T20:58:04.456Z,97.52
2019-03-25T21:00:51.570Z,97.65
2019-03-25T21:03:23.255Z,98.26
2019-03-25T21:05:52.758Z,98.18
2019-03-25T21:08:22.233Z,98.18
2019-03-25T21:10:51.802Z,98.26
2019-03-25T21:13:21.267Z,98.27
2019-03-25T21:15:50.849Z,98.34
2019-03-25T21:18:20.435Z,98.34
2019-03-25T21:20:49.843Z,98.39
2019-03-25T21:23:20.591Z,98.32
2019-03-25T21:25:50.128Z,98.30
2019-03-25T21:28:19.625Z,98.30
2019-03-25T21:30:49.103Z,98.30
2019-03-25T21:33:18.639Z,98.09
2019-03-25T21:35:52.491Z,97.93
2019-03-25T21:38:22.012Z,97.70
2019-03-25T21:40:51.485Z,97.27
2019-03-25T21:43:21.103Z,97.02
2019-03-25T21:45:51.497Z,96.94
2019-03-25T21:48:21.121Z,96.93
2019-03-25T21:50:50.603Z,96.37
2019-03-25T21:53:20.086Z,96.61
2019-03-25T21:55:49.565Z,96.56
2019-03-25T21:58:19.089Z,96.49
2019-03-25T22:00:48.644Z,96.50
2019-03-25T22:03:18.329Z,96.40
2019-03-25T22:05:47.745Z,96.43
2019-03-25T22:08:17.219Z,96.45
2019-03-25T22:10:46.630Z,96.33
2019-03-25T22:13:16.155Z,96.20
2019-03-25T22:15:45.654Z,96.13
2019-03-25T22:18:15.078Z,96.15
2019-03-25T22:20:44.713Z,96.20
2019-03-25T22:23:14.316Z,96.35
2019-03-25T22:25:43.725Z,96.47
2019-03-25T22:28:13.290Z,96.54
2019-03-25T22:30:43.055Z,96.64
2019-03-25T22:33:25.092Z,96.77
2019-03-25T22:35:47.037Z,96.95
2019-03-25T22:38:16.552Z,97.08
2019-03-25T22:40:45.961Z,97.22
2019-03-25T22:43:15.414Z,97.39
2019-03-25T22:45:44.827Z,97.45
2019-03-25T22:48:14.371Z,97.50
2019-03-25T22:50:43.782Z,97.48
2019-03-25T22:53:13.273Z,97.43
2019-03-25T22:55:42.686Z,97.41
2019-03-25T22:58:12.368Z,97.39
2019-03-25T23:00:45.579Z,97.48
2019-03-25T23:03:18.744Z,97.58
2019-03-25T23:05:48.865Z,97.72
2019-03-25T23:08:21.961Z,97.82
2019-03-25T23:10:52.923Z,97.94
2019-03-25T23:13:22.850Z,98.04
2019-03-25T23:15:52.764Z,98.16
2019-03-25T23:18:22.811Z,98.29
2019-03-25T23:20:52.889Z,98.47
2019-03-25T23:23:24.452Z,98.62
2019-03-25T23:25:55.979Z,98.36
2019-03-25T23:28:28.457Z,97.94
2019-03-25T23:30:59.979Z,97.58
2019-03-25T23:33:29.829Z,97.44
2019-03-25T23:35:59.500Z,97.13
2019-03-25T23:38:28.989Z,96.82
2019-03-25T23:40:58.418Z,96.59
2019-03-25T23:43:27.897Z,96.66
2019-03-25T23:45:57.339Z,96.87
2019-03-25T23:48:27.930Z,97.14
2019-03-25T23:50:57.445Z,97.38
2019-03-25T23:53:26.926Z,97.64
2019-03-25T23:55:56.400Z,97.85
2019-03-25T23:58:25.932Z,98.11
